Saint Croix Falls, WI (54024)

9:26 PM CDT on June 23, 2017 (GMT -0500)
Hilltop Acres | | Change Station

Elev 900 ft 45.34 °N, 92.67 °W | Updated 6 minutes ago

Overcast
Overcast
60.9 °F
Feels Like 60.9 °F
N
3.0
Wind Variable Wind from NW
Gusts 5.0 mph

Today
High -- | Low -- °F
--% Chance of Precip.
Yesterday
High -- | Low -- °F
Precip. -- in
Pressure 29.91 in
Visibility 10.0 miles
Clouds Scattered Clouds 3700 ft
Mostly Cloudy 4500 ft
Overcast 5500 ft
Dew Point 56 °F
Humidity 85%
Rainfall 0.00 in
Snow Depth Not available.
5:22 AM 9:02 PM
Waning Crescent, 0% visible
METAR KOEO 240215Z AUTO 27003KT 10SM -DZ SCT037 BKN045 OVC055 17/12 A2991 RMK AO2 T01660121
Pressure 29.91 in
Visibility 10.0 miles
Clouds Scattered Clouds 3700 ft
Mostly Cloudy 4500 ft
Overcast 5500 ft
Dew Point 56 °F
Humidity 85%
Rainfall 0.00 in
Snow Depth Not available.
5:22 AM 9:02 PM
Waning Crescent, 0% visible
METAR KOEO 240215Z AUTO 27003KT 10SM -DZ SCT037 BKN045 OVC055 17/12 A2991 RMK AO2 T01660121

Get Severe Weather Alerts

Thanks for signing up!

Be on the lookout for a verification email in your inbox.

You'll start receiving the daily forecast at 6 AM.

×

10-Day Weather Forecast

Almanac

Astronomy

Jun. 23, 2017 Rise Set
Actual Time
Civil Twilight
Nautical Twilight
Astronomical Twilight
Moon
Length of Visible Light
Length of Day
Tomorrow will be .
, % of the Moon is Illuminated

Today's Extremes

State Highs State Lows

Community

WunderPhotos

Category 6

Welcome to Category 6. This is the collective home for Weather Underground's featured writeups by Dr. Jeff Masters (right), Bob Henson (left), Chris Burt, and other regular contributors.

Nearby

Air Quality

  Air Quality AQ Index Pollutant
Not available.

Snow Depth

Station Depth Elevation

Earthquake Activity

City Distance Mag. Time & Date
Minimum magnitude displayed is 2.5.

Coastal Water Temperatures

Place Temperature

Stations

Nearby Weather Stations

Station Location Temp. Windchill Dew Point Humidity Wind Precip. Elev Updated Type
                   

Watches & Warnings

There are currently no watches in effect.